Kasagimaru — JJ3905 — position and weather

sailwx.info

Track history (hours):
 
Tides and Currents Weather Stations Pressure Air Temp Water Temp Dewpoint Dewpoint Depression Visibility Wind Speed Wind Dir Waves Ship Positions

Kasagimaru

Last reported at 2015-Aug-01 01:17 UTC. Time now 2015-Aug-01 03:32 UTC.
Position N 34°30' E 135°14'.

Length 42 m; draft 3.5 m.

Type: Tug. MMSI: 431300268.

Date/timePositionNaut miles runAvg speedWind from/ knotsBaromVisibWave heightAir tempDewpointWater temp
2015-Aug-01 01:17N 34°30' E 135°14'1 0.1
2015-Jul-31 00:28N 34°31' E 135°14'1813.2
2015-Jul-30 23:08N 34°18' E 134°60'713.0
2015-Jul-30 22:33N 34°10' E 134°59'7 0.3
2015-Jul-29 21:32N 34°16' E 135°02'1312.8
2015-Jul-29 20:33N 34°24' E 135°14'1313.0
2015-Jul-29 19:33N 34°33' E 135°26'1 0.9
2015-Jul-29 18:30N 34°33' E 135°27'0 0.0
2015-Jul-29 17:33N 34°33' E 135°27'0 0.0
2015-Jul-29 16:28N 34°33' E 135°27'0 0.0
2015-Jul-29 07:25N 34°33' E 135°27'0 0.2
2015-Jul-29 06:33N 34°33' E 135°27'3 3.3
2015-Jul-29 05:32N 34°31' E 135°23'0 0.2
2015-Jul-29 04:27N 34°31' E 135°23'2 2.2
2015-Jul-29 03:30N 34°33' E 135°25'0 0.1
2015-Jul-29 02:33N 34°33' E 135°25'4 3.6
2015-Jul-29 01:20N 34°34' E 135°20'0 0.5
2015-Jul-29 00:33N 34°34' E 135°20'4 4.3
2015-Jul-28 23:33N 34°33' E 135°25'1 0.7
2015-Jul-28 22:34N 34°33' E 135°26'1 0.9
2015-Jul-28 21:33N 34°33' E 135°27'0 0.0
2015-Jul-28 20:32N 34°33' E 135°27'0 0.0
2015-Jul-28 19:33N 34°33' E 135°27'0 0.0
2015-Jul-28 18:33N 34°33' E 135°27'0 0.0
2015-Jul-28 17:32N 34°33' E 135°27'0 0.0
2015-Jul-28 16:33N 34°33' E 135°27'0 0.0
2015-Jul-28 15:33N 34°33' E 135°27'0 0.0
2015-Jul-28 14:31N 34°33' E 135°27'0 0.0
2015-Jul-28 13:33N 34°33' E 135°27'0 0.0
2015-Jul-28 12:33N 34°33' E 135°27'0 0.0
2015-Jul-28 11:32N 34°33' E 135°27'0 0.0
2015-Jul-28 10:21N 34°33' E 135°27'0 0.0
2015-Jul-28 09:21N 34°33' E 135°27'6 7.3
2015-Jul-28 08:33N 34°39' E 135°25'1 1.3
2015-Jul-28 07:33N 34°38' E 135°24'0 0.5
2015-Jul-28 06:33N 34°38' E 135°23'2 2.1
2015-Jul-28 05:34N 34°39' E 135°26'6 5.4
2015-Jul-28 04:31N 34°33' E 135°27'1 0.3
2015-Jul-28 01:20N 34°33' E 135°25'0 0.2
2015-Jul-28 00:32N 34°33' E 135°25'4 4.5
2015-Jul-27 23:33N 34°33' E 135°20'5 4.7
2015-Jul-27 22:33N 34°33' E 135°26'1 0.8
2015-Jul-27 21:33N 34°33' E 135°27'0 0.0
2015-Jul-27 20:33N 34°33' E 135°27'0 0.0
2015-Jul-27 19:18N 34°33' E 135°27'0 0.0
2015-Jul-27 18:33N 34°33' E 135°27'0 0.0
2015-Jul-27 17:33N 34°33' E 135°27'0 0.0
2015-Jul-27 16:33N 34°33' E 135°27'0 0.0
2015-Jul-27 15:28N 34°33' E 135°27'0 0.0
2015-Jul-27 14:31N 34°33' E 135°27'0 0.0
2015-Jul-27 09:33N 34°33' E 135°27'1 0.8
2015-Jul-27 08:30N 34°33' E 135°26'0 0.4
2015-Jul-27 07:33N 34°33' E 135°26'3 3.2
2015-Jul-27 06:33N 34°31' E 135°23'0 0.5
2015-Jul-27 05:32N 34°32' E 135°23'3 3.2
2015-Jul-27 04:33N 34°33' E 135°27'0 0.0
2015-Jul-27 03:30N 34°33' E 135°27'0 0.0
2015-Jul-27 02:32N 34°33' E 135°27'0 0.0
2015-Jul-27 01:33N 34°33' E 135°27'0 0.0
2015-Jul-27 00:27N 34°33' E 135°27'0 0.0
2015-Jul-26 23:33N 34°33' E 135°27'3 2.5
2015-Jul-26 22:33N 34°33' E 135°24'8 8.0
2015-Jul-26 21:33N 34°26' E 135°19'9 9.0
2015-Jul-26 20:33N 34°33' E 135°25'1 1.1
2015-Jul-26 19:33N 34°33' E 135°27'0 0.0
2015-Jul-26 18:33N 34°33' E 135°27'0 0.0
2015-Jul-26 17:33N 34°33' E 135°27'0 0.0
2015-Jul-26 16:33N 34°33' E 135°27'0 0.0
2015-Jul-26 15:33N 34°33' E 135°27'0 0.0
2015-Jul-26 14:33N 34°33' E 135°27'0 0.0
2015-Jul-26 13:32N 34°33' E 135°27'0 0.0
2015-Jul-26 12:33N 34°33' E 135°27'0 0.0
2015-Jul-26 11:32N 34°33' E 135°27'0 0.0
2015-Jul-26 10:33N 34°33' E 135°27'0 0.0
2015-Jul-26 09:30N 34°33' E 135°27'0 0.0
2015-Jul-26 08:33N 34°33' E 135°27'0 0.0
2015-Jul-26 07:33N 34°33' E 135°27'0 0.0
2015-Jul-26 06:33N 34°33' E 135°27'0 0.0
2015-Jul-26 05:33N 34°33' E 135°27'0 0.0
2015-Jul-26 04:33N 34°33' E 135°27'0 0.0
2015-Jul-26 03:33N 34°33' E 135°27'0 0.0
2015-Jul-26 02:33N 34°33' E 135°27'0 0.0
2015-Jul-26 01:32N 34°33' E 135°27'0 0.0
2015-Jul-26 00:33N 34°33' E 135°27'0 0.0
2015-Jul-25 23:33N 34°33' E 135°27'4 4.1
2015-Jul-25 22:33N 34°33' E 135°22'3 2.7
2015-Jul-25 21:33N 34°33' E 135°25'0 0.1
2015-Jul-25 20:33N 34°33' E 135°25'0 0.0
2015-Jul-25 19:21N 34°33' E 135°25'0 0.0
2015-Jul-25 18:19N 34°33' E 135°25'0 0.1
2015-Jul-25 17:31N 34°33' E 135°25'0 0.0
2015-Jul-25 16:33N 34°33' E 135°25'0 0.1
2015-Jul-25 15:33N 34°33' E 135°25'0 0.0
2015-Jul-25 14:32N 34°33' E 135°25'0 0.0
2015-Jul-25 13:30N 34°33' E 135°25'0 0.1
2015-Jul-25 12:33N 34°33' E 135°25'0 0.0
2015-Jul-25 11:32N 34°33' E 135°25'0 0.0
2015-Jul-25 10:33N 34°33' E 135°25'0 0.1
2015-Jul-25 09:31N 34°33' E 135°25'0 0.0
2015-Jul-25 08:27N 34°33' E 135°25'0 0.0
2015-Jul-25 07:32N 34°33' E 135°25'0 0.0
2015-Jul-25 06:28N 34°33' E 135°25'0 0.0
2015-Jul-25 05:33N 34°33' E 135°25'0 0.0
2015-Jul-25 04:28N 34°33' E 135°25'0 0.5
2015-Jul-25 03:33N 34°33' E 135°25'1312.9
2015-Jul-25 02:33N 34°24' E 135°14'1514.4
2015-Jul-25 01:32N 34°16' E 134°59'1212.2
2015-Jul-25 00:33N 34°26' E 135°08'1312.6
2015-Jul-24 23:33N 34°33' E 135°20'4 2.8
2015-Jul-24 22:17N 34°34' E 135°24'2 2.9
2015-Jul-24 21:33N 34°33' E 135°27'0 0.0
2015-Jul-24 20:33N 34°33' E 135°27'0 0.0
2015-Jul-24 19:33N 34°33' E 135°27'0 0.0
2015-Jul-24 18:33N 34°33' E 135°27'0 0.0
2015-Jul-24 17:33N 34°33' E 135°27'0 0.0
2015-Jul-24 16:33N 34°33' E 135°27'0 0.0
2015-Jul-24 15:33N 34°33' E 135°27'0 0.0
2015-Jul-24 11:32N 34°33' E 135°27'0 0.0
2015-Jul-24 10:33N 34°33' E 135°27'0 0.0
2015-Jul-24 09:30N 34°33' E 135°27'0 0.0
2015-Jul-24 08:32N 34°33' E 135°27'0 0.0
2015-Jul-24 07:33N 34°33' E 135°27'0 0.0
2015-Jul-24 06:31N 34°33' E 135°27'0 0.0
2015-Jul-24 05:33N 34°33' E 135°27'0 0.0
2015-Jul-24 00:32N 34°33' E 135°27'2 1.4
2015-Jul-23 23:06N 34°34' E 135°24'1 0.9
2015-Jul-23 22:30N 34°34' E 135°24'7 7.3
2015-Jul-23 21:33N 34°31' E 135°16'1611.8
2015-Jul-23 20:10N 34°20' E 135°02'711.2
2015-Jul-23 19:33N 34°14' E 134°60'7 6.8
2015-Jul-23 18:33N 34°13' E 135°08'1 1.1
2015-Jul-23 17:33N 34°13' E 135°09'0 0.0
2015-Jul-23 16:33N 34°13' E 135°09'0 0.0
2015-Jul-23 15:33N 34°13' E 135°09'0 0.0
2015-Jul-23 14:33N 34°13' E 135°09'0 0.0
2015-Jul-23 13:33N 34°13' E 135°09'0 0.0
2015-Jul-23 12:33N 34°13' E 135°09'0 0.0
2015-Jul-23 11:33N 34°13' E 135°09'0 0.0
2015-Jul-23 10:33N 34°13' E 135°09'0 0.0
2015-Jul-23 09:33N 34°13' E 135°09'0 0.0
2015-Jul-23 08:33N 34°13' E 135°09'0 0.0
2015-Jul-23 07:33N 34°13' E 135°09'0 0.0
2015-Jul-23 06:33N 34°13' E 135°09'0 0.0
2015-Jul-23 05:33N 34°13' E 135°09'0 0.0
2015-Jul-23 04:33N 34°13' E 135°09'5 5.3
2015-Jul-23 03:33N 34°10' E 135°04'11 1.5
2015-Jul-22 20:17N 34°21' E 135°02'1013.3
2015-Jul-22 19:33N 34°27' E 135°12'1313.2
2015-Jul-22 18:33N 34°33' E 135°26'1 0.3
2015-Jul-22 15:15N 34°33' E 135°27'0 0.0
2015-Jul-22 10:19N 34°33' E 135°27'2 1.0
2015-Jul-22 08:33N 34°33' E 135°24'3 2.6
2015-Jul-22 07:33N 34°31' E 135°24'0 0.3
2015-Jul-22 06:33N 34°31' E 135°24'0 0.0
2015-Jul-22 05:33N 34°31' E 135°24'0 0.0
2015-Jul-22 04:33N 34°31' E 135°24'0 0.0
2015-Jul-22 03:32N 34°31' E 135°24'0 0.0
2015-Jul-22 02:33N 34°31' E 135°24'0 0.0
2015-Jul-22 01:33N 34°31' E 135°24'  
Track history (hours):
 
Tides and Currents Weather Stations Pressure Air Temp Water Temp Dewpoint Dewpoint Depression Visibility Wind Speed Wind Dir Waves Ship Positions

Kasagimaru

Last reported at 2015-Aug-01 01:17 UTC. Time now 2015-Aug-01 03:32 UTC.
Position N 34°30' E 135°14'.

Length 42 m; draft 3.5 m.

Type: Tug. MMSI: 431300268.

Date/timePositionNaut miles runAvg speedWind from/ knotsBaromVisibWave heightAir tempDewpointWater temp
2015-Aug-01 01:17N 34°30' E 135°14'1 0.1
2015-Jul-31 00:28N 34°31' E 135°14'1813.2
2015-Jul-30 23:08N 34°18' E 134°60'713.0
2015-Jul-30 22:33N 34°10' E 134°59'7 0.3
2015-Jul-29 21:32N 34°16' E 135°02'1312.8
2015-Jul-29 20:33N 34°24' E 135°14'1313.0
2015-Jul-29 19:33N 34°33' E 135°26'1 0.9
2015-Jul-29 18:30N 34°33' E 135°27'0 0.0
2015-Jul-29 17:33N 34°33' E 135°27'0 0.0
2015-Jul-29 16:28N 34°33' E 135°27'0 0.0
2015-Jul-29 07:25N 34°33' E 135°27'0 0.2
2015-Jul-29 06:33N 34°33' E 135°27'3 3.3
2015-Jul-29 05:32N 34°31' E 135°23'0 0.2
2015-Jul-29 04:27N 34°31' E 135°23'2 2.2
2015-Jul-29 03:30N 34°33' E 135°25'0 0.1
2015-Jul-29 02:33N 34°33' E 135°25'4 3.6
2015-Jul-29 01:20N 34°34' E 135°20'0 0.5
2015-Jul-29 00:33N 34°34' E 135°20'4 4.3
2015-Jul-28 23:33N 34°33' E 135°25'1 0.7
2015-Jul-28 22:34N 34°33' E 135°26'1 0.9
2015-Jul-28 21:33N 34°33' E 135°27'0 0.0
2015-Jul-28 20:32N 34°33' E 135°27'0 0.0
2015-Jul-28 19:33N 34°33' E 135°27'0 0.0
2015-Jul-28 18:33N 34°33' E 135°27'0 0.0
2015-Jul-28 17:32N 34°33' E 135°27'0 0.0
2015-Jul-28 16:33N 34°33' E 135°27'0 0.0
2015-Jul-28 15:33N 34°33' E 135°27'0 0.0
2015-Jul-28 14:31N 34°33' E 135°27'0 0.0
2015-Jul-28 13:33N 34°33' E 135°27'0 0.0
2015-Jul-28 12:33N 34°33' E 135°27'0 0.0
2015-Jul-28 11:32N 34°33' E 135°27'0 0.0
2015-Jul-28 10:21N 34°33' E 135°27'0 0.0
2015-Jul-28 09:21N 34°33' E 135°27'6 7.3
2015-Jul-28 08:33N 34°39' E 135°25'1 1.3
2015-Jul-28 07:33N 34°38' E 135°24'0 0.5
2015-Jul-28 06:33N 34°38' E 135°23'2 2.1
2015-Jul-28 05:34N 34°39' E 135°26'6 5.4
2015-Jul-28 04:31N 34°33' E 135°27'1 0.3
2015-Jul-28 01:20N 34°33' E 135°25'0 0.2
2015-Jul-28 00:32N 34°33' E 135°25'4 4.5
2015-Jul-27 23:33N 34°33' E 135°20'5 4.7
2015-Jul-27 22:33N 34°33' E 135°26'1 0.8
2015-Jul-27 21:33N 34°33' E 135°27'0 0.0
2015-Jul-27 20:33N 34°33' E 135°27'0 0.0
2015-Jul-27 19:18N 34°33' E 135°27'0 0.0
2015-Jul-27 18:33N 34°33' E 135°27'0 0.0
2015-Jul-27 17:33N 34°33' E 135°27'0 0.0
2015-Jul-27 16:33N 34°33' E 135°27'0 0.0
2015-Jul-27 15:28N 34°33' E 135°27'0 0.0
2015-Jul-27 14:31N 34°33' E 135°27'0 0.0
2015-Jul-27 09:33N 34°33' E 135°27'1 0.8
2015-Jul-27 08:30N 34°33' E 135°26'0 0.4
2015-Jul-27 07:33N 34°33' E 135°26'3 3.2
2015-Jul-27 06:33N 34°31' E 135°23'0 0.5
2015-Jul-27 05:32N 34°32' E 135°23'3 3.2
2015-Jul-27 04:33N 34°33' E 135°27'0 0.0
2015-Jul-27 03:30N 34°33' E 135°27'0 0.0
2015-Jul-27 02:32N 34°33' E 135°27'0 0.0
2015-Jul-27 01:33N 34°33' E 135°27'0 0.0
2015-Jul-27 00:27N 34°33' E 135°27'0 0.0
2015-Jul-26 23:33N 34°33' E 135°27'3 2.5
2015-Jul-26 22:33N 34°33' E 135°24'8 8.0
2015-Jul-26 21:33N 34°26' E 135°19'9 9.0
2015-Jul-26 20:33N 34°33' E 135°25'1 1.1
2015-Jul-26 19:33N 34°33' E 135°27'0 0.0
2015-Jul-26 18:33N 34°33' E 135°27'0 0.0
2015-Jul-26 17:33N 34°33' E 135°27'0 0.0
2015-Jul-26 16:33N 34°33' E 135°27'0 0.0
2015-Jul-26 15:33N 34°33' E 135°27'0 0.0
2015-Jul-26 14:33N 34°33' E 135°27'0 0.0
2015-Jul-26 13:32N 34°33' E 135°27'0 0.0
2015-Jul-26 12:33N 34°33' E 135°27'0 0.0
2015-Jul-26 11:32N 34°33' E 135°27'0 0.0
2015-Jul-26 10:33N 34°33' E 135°27'0 0.0
2015-Jul-26 09:30N 34°33' E 135°27'0 0.0
2015-Jul-26 08:33N 34°33' E 135°27'0 0.0
2015-Jul-26 07:33N 34°33' E 135°27'0 0.0
2015-Jul-26 06:33N 34°33' E 135°27'0 0.0
2015-Jul-26 05:33N 34°33' E 135°27'0 0.0
2015-Jul-26 04:33N 34°33' E 135°27'0 0.0
2015-Jul-26 03:33N 34°33' E 135°27'0 0.0
2015-Jul-26 02:33N 34°33' E 135°27'0 0.0
2015-Jul-26 01:32N 34°33' E 135°27'0 0.0
2015-Jul-26 00:33N 34°33' E 135°27'0 0.0
2015-Jul-25 23:33N 34°33' E 135°27'4 4.1
2015-Jul-25 22:33N 34°33' E 135°22'3 2.7
2015-Jul-25 21:33N 34°33' E 135°25'0 0.1
2015-Jul-25 20:33N 34°33' E 135°25'0 0.0
2015-Jul-25 19:21N 34°33' E 135°25'0 0.0
2015-Jul-25 18:19N 34°33' E 135°25'0 0.1
2015-Jul-25 17:31N 34°33' E 135°25'0 0.0
2015-Jul-25 16:33N 34°33' E 135°25'0 0.1
2015-Jul-25 15:33N 34°33' E 135°25'0 0.0
2015-Jul-25 14:32N 34°33' E 135°25'0 0.0
2015-Jul-25 13:30N 34°33' E 135°25'0 0.1
2015-Jul-25 12:33N 34°33' E 135°25'0 0.0
2015-Jul-25 11:32N 34°33' E 135°25'0 0.0
2015-Jul-25 10:33N 34°33' E 135°25'0 0.1
2015-Jul-25 09:31N 34°33' E 135°25'0 0.0
2015-Jul-25 08:27N 34°33' E 135°25'0 0.0
2015-Jul-25 07:32N 34°33' E 135°25'0 0.0
2015-Jul-25 06:28N 34°33' E 135°25'0 0.0
2015-Jul-25 05:33N 34°33' E 135°25'0 0.0
2015-Jul-25 04:28N 34°33' E 135°25'0 0.5
2015-Jul-25 03:33N 34°33' E 135°25'1312.9
2015-Jul-25 02:33N 34°24' E 135°14'1514.4
2015-Jul-25 01:32N 34°16' E 134°59'1212.2
2015-Jul-25 00:33N 34°26' E 135°08'1312.6
2015-Jul-24 23:33N 34°33' E 135°20'4 2.8
2015-Jul-24 22:17N 34°34' E 135°24'2 2.9
2015-Jul-24 21:33N 34°33' E 135°27'0 0.0
2015-Jul-24 20:33N 34°33' E 135°27'0 0.0
2015-Jul-24 19:33N 34°33' E 135°27'0 0.0
2015-Jul-24 18:33N 34°33' E 135°27'0 0.0
2015-Jul-24 17:33N 34°33' E 135°27'0 0.0
2015-Jul-24 16:33N 34°33' E 135°27'0 0.0
2015-Jul-24 15:33N 34°33' E 135°27'0 0.0
2015-Jul-24 11:32N 34°33' E 135°27'0 0.0
2015-Jul-24 10:33N 34°33' E 135°27'0 0.0
2015-Jul-24 09:30N 34°33' E 135°27'0 0.0
2015-Jul-24 08:32N 34°33' E 135°27'0 0.0
2015-Jul-24 07:33N 34°33' E 135°27'0 0.0
2015-Jul-24 06:31N 34°33' E 135°27'0 0.0
2015-Jul-24 05:33N 34°33' E 135°27'0 0.0
2015-Jul-24 00:32N 34°33' E 135°27'2 1.4
2015-Jul-23 23:06N 34°34' E 135°24'1 0.9
2015-Jul-23 22:30N 34°34' E 135°24'7 7.3
2015-Jul-23 21:33N 34°31' E 135°16'1611.8
2015-Jul-23 20:10N 34°20' E 135°02'711.2
2015-Jul-23 19:33N 34°14' E 134°60'7 6.8
2015-Jul-23 18:33N 34°13' E 135°08'1 1.1
2015-Jul-23 17:33N 34°13' E 135°09'0 0.0
2015-Jul-23 16:33N 34°13' E 135°09'0 0.0
2015-Jul-23 15:33N 34°13' E 135°09'0 0.0
2015-Jul-23 14:33N 34°13' E 135°09'0 0.0
2015-Jul-23 13:33N 34°13' E 135°09'0 0.0
2015-Jul-23 12:33N 34°13' E 135°09'0 0.0
2015-Jul-23 11:33N 34°13' E 135°09'0 0.0
2015-Jul-23 10:33N 34°13' E 135°09'0 0.0
2015-Jul-23 09:33N 34°13' E 135°09'0 0.0
2015-Jul-23 08:33N 34°13' E 135°09'0 0.0
2015-Jul-23 07:33N 34°13' E 135°09'0 0.0
2015-Jul-23 06:33N 34°13' E 135°09'0 0.0
2015-Jul-23 05:33N 34°13' E 135°09'0 0.0
2015-Jul-23 04:33N 34°13' E 135°09'5 5.3
2015-Jul-23 03:33N 34°10' E 135°04'11 1.5
2015-Jul-22 20:17N 34°21' E 135°02'1013.3
2015-Jul-22 19:33N 34°27' E 135°12'1313.2
2015-Jul-22 18:33N 34°33' E 135°26'1 0.3
2015-Jul-22 15:15N 34°33' E 135°27'0 0.0
2015-Jul-22 10:19N 34°33' E 135°27'2 1.0
2015-Jul-22 08:33N 34°33' E 135°24'3 2.6
2015-Jul-22 07:33N 34°31' E 135°24'0 0.3
2015-Jul-22 06:33N 34°31' E 135°24'0 0.0
2015-Jul-22 05:33N 34°31' E 135°24'0 0.0
2015-Jul-22 04:33N 34°31' E 135°24'0 0.0
2015-Jul-22 03:32N 34°31' E 135°24'0 0.0
2015-Jul-22 02:33N 34°31' E 135°24'0 0.0
2015-Jul-22 01:33N 34°31' E 135°24'  

Dump ship's entire track history